createdAt,value
2019-02-26T00:04:32.145Z,18.57
2019-02-26T00:07:04.833Z,13.77
2019-02-26T00:09:35.017Z,14.97
2019-02-26T00:13:01.695Z,13.10
2019-02-26T00:15:31.305Z,15.73
2019-02-26T00:18:37.569Z,16.90
2019-02-26T00:21:05.093Z,17.50
2019-02-26T00:23:32.202Z,15.67
2019-02-26T00:29:01.850Z,14.53
2019-02-26T00:34:47.705Z,19.43
2019-02-26T00:37:14.874Z,18.60
2019-02-26T00:40:01.906Z,13.77
2019-02-26T00:43:09.884Z,17.53
2019-02-26T00:48:40.700Z,15.90
2019-02-26T00:51:48.277Z,26.93
2019-02-26T00:54:24.503Z,14.70
2019-02-26T00:57:01.039Z,14.70
2019-02-26T00:59:36.385Z,16.63
2019-02-26T01:02:49.622Z,17.93
2019-02-26T01:05:16.938Z,13.43
2019-02-26T01:08:24.997Z,13.67
2019-02-26T01:10:52.194Z,15.70
2019-02-26T01:13:20.306Z,18.03
2019-02-26T01:15:58.124Z,23.13
2019-02-26T01:18:26.771Z,16.20
2019-02-26T01:21:02.519Z,15.77
2019-02-26T01:23:35.552Z,14.67
2019-02-26T01:26:43.637Z,15.60
2019-02-26T01:32:31.219Z,16.30
2019-02-26T01:34:58.390Z,14.93
2019-02-26T01:37:27.715Z,18.93
2019-02-26T01:40:18.253Z,19.67
2019-02-26T01:42:52.426Z,16.30
2019-02-26T01:45:30.350Z,14.40
2019-02-26T01:48:06.292Z,10.70
2019-02-26T01:50:40.650Z,11.77
2019-02-26T01:53:15.156Z,19.63
2019-02-26T01:55:50.538Z,17.93
2019-02-26T01:58:24.293Z,18.33
2019-02-26T02:00:55.327Z,11.67
2019-02-26T02:06:41.327Z,12.90
2019-02-26T02:09:18.134Z,12.53
2019-02-26T02:14:52.547Z,15.07
2019-02-26T02:18:01.773Z,19.00
2019-02-26T02:20:35.579Z,14.97
2019-02-26T02:23:04.694Z,14.10
2019-02-26T02:26:04.214Z,13.70
2019-02-26T02:28:36.389Z,12.43
2019-02-26T02:31:03.708Z,13.67
2019-02-26T02:33:50.390Z,12.50
2019-02-26T02:36:58.476Z,13.77
2019-02-26T02:39:26.602Z,12.70
2019-02-26T02:42:00.838Z,15.67
2019-02-26T02:44:28.006Z,12.77
2019-02-26T02:46:55.242Z,13.33
2019-02-26T02:50:05.586Z,15.80
2019-02-26T02:52:38.549Z,17.43
2019-02-26T02:55:06.878Z,17.07
2019-02-26T02:57:55.960Z,12.83
2019-02-26T03:00:32.174Z,14.67
2019-02-26T03:06:09.694Z,12.00
2019-02-26T03:08:45.291Z,11.80
2019-02-26T03:11:18.879Z,12.77
2019-02-26T03:13:48.370Z,14.67
2019-02-26T03:16:42.488Z,12.50
2019-02-26T03:19:17.024Z,11.80
2019-02-26T03:21:52.589Z,12.90
2019-02-26T03:24:30.235Z,16.30
2019-02-26T03:27:05.523Z,14.37
2019-02-26T03:29:32.773Z,15.47
2019-02-26T03:31:59.916Z,11.73
2019-02-26T03:37:08.958Z,10.57
2019-02-26T03:39:46.439Z,11.67
2019-02-26T03:42:16.670Z,17.00
2019-02-26T03:45:48.074Z,11.57
2019-02-26T03:48:20.882Z,12.97
2019-02-26T03:50:47.998Z,11.67
2019-02-26T03:53:15.172Z,11.80
2019-02-26T04:01:37.842Z,15.53
2019-02-26T04:04:07.581Z,14.30
2019-02-26T04:07:02.115Z,14.17
2019-02-26T04:09:39.115Z,10.43
2019-02-26T04:17:55.985Z,12.43
2019-02-26T04:20:44.338Z,14.30
2019-02-26T04:26:58.641Z,11.27
2019-02-26T04:30:05.917Z,11.83
2019-02-26T04:33:14.046Z,15.23
2019-02-26T04:36:42.783Z,15.03
2019-02-26T04:39:42.900Z,16.30
2019-02-26T04:42:59.528Z,11.47
2019-02-26T04:46:10.352Z,14.70
2019-02-26T04:49:16.617Z,16.60
2019-02-26T04:51:45.050Z,13.07
2019-02-26T04:54:33.738Z,12.97
2019-02-26T04:57:12.102Z,14.37
2019-02-26T05:02:52.516Z,22.67
2019-02-26T05:11:00.068Z,13.10
2019-02-26T05:13:48.392Z,12.73
2019-02-26T05:16:15.615Z,25.73
2019-02-26T05:18:45.889Z,12.97
2019-02-26T05:21:49.600Z,13.70
2019-02-26T05:27:50.984Z,14.10
2019-02-26T05:30:21.727Z,16.63
2019-02-26T05:32:57.021Z,16.90
2019-02-26T05:35:28.856Z,10.17
2019-02-26T05:37:58.317Z,12.40
2019-02-26T05:40:45.821Z,15.00
2019-02-26T05:44:03.999Z,15.10
2019-02-26T05:46:36.314Z,13.97
2019-02-26T05:49:05.786Z,10.90
2019-02-26T05:51:53.529Z,13.67
2019-02-26T05:54:52.636Z,16.33
2019-02-26T05:58:07.929Z,12.40
2019-02-26T06:00:42.861Z,24.93
2019-02-26T06:06:11.116Z,19.20
2019-02-26T06:08:39.306Z,17.50
2019-02-26T06:11:17.180Z,13.33
2019-02-26T06:13:52.099Z,15.43
2019-02-26T06:16:21.843Z,16.30
2019-02-26T06:22:31.746Z,14.00
2019-02-26T06:25:09.624Z,12.10
2019-02-26T06:27:39.940Z,15.30
2019-02-26T06:33:34.146Z,13.30
2019-02-26T06:36:21.057Z,17.27
2019-02-26T06:38:49.630Z,13.27
2019-02-26T06:41:39.586Z,20.67
2019-02-26T06:44:15.139Z,24.83
2019-02-26T06:50:18.882Z,17.17
2019-02-26T06:52:51.995Z,18.90
2019-02-26T06:55:19.242Z,27.83
2019-02-26T06:57:49.359Z,21.70
2019-02-26T07:03:26.662Z,16.70
2019-02-26T07:05:53.744Z,20.97
2019-02-26T07:08:23.741Z,57.50
2019-02-26T07:14:18.225Z,43.30
2019-02-26T07:20:00.381Z,42.27
2019-02-26T07:22:34.792Z,49.17
2019-02-26T07:25:16.598Z,46.63
2019-02-26T07:27:43.593Z,47.83
2019-02-26T07:33:15.049Z,25.00
2019-02-26T07:38:49.145Z,31.53
2019-02-26T07:41:27.847Z,33.43
2019-02-26T07:44:00.612Z,20.57
2019-02-26T07:46:27.813Z,19.27
2019-02-26T07:49:14.378Z,19.23
2019-02-26T07:51:43.013Z,24.20
2019-02-26T08:03:24.161Z,15.50
2019-02-26T08:06:12.120Z,18.53
2019-02-26T08:08:48.462Z,19.20
2019-02-26T08:11:20.636Z,27.87
2019-02-26T08:14:21.028Z,16.70
2019-02-26T08:16:51.363Z,18.50
2019-02-26T08:19:29.485Z,14.63
2019-02-26T08:31:23.320Z,16.63
2019-02-26T08:34:13.527Z,20.17
2019-02-26T08:36:46.760Z,13.40
2019-02-26T08:39:20.996Z,14.03
2019-02-26T08:42:08.268Z,11.73
2019-02-26T08:45:17.766Z,27.60
2019-02-26T08:48:02.864Z,11.30
2019-02-26T08:50:33.100Z,18.33
2019-02-26T08:57:00.732Z,11.83
2019-02-26T08:59:27.947Z,13.83
2019-02-26T09:01:55.114Z,10.63
2019-02-26T09:04:23.923Z,9.47
2019-02-26T09:07:11.164Z,15.23
2019-02-26T09:09:52.504Z,16.53
2019-02-26T09:12:19.917Z,11.70
2019-02-26T09:15:50.221Z,10.17
2019-02-26T09:24:54.349Z,17.07
2019-02-26T09:27:32.109Z,12.90
2019-02-26T09:39:15.454Z,16.87
2019-02-26T09:42:46.275Z,10.87
2019-02-26T09:45:22.435Z,17.57
2019-02-26T09:47:55.641Z,18.07
2019-02-26T09:50:29.254Z,21.70
2019-02-26T09:58:37.502Z,23.70
2019-02-26T10:01:45.717Z,24.40
2019-02-26T10:04:26.440Z,27.93
2019-02-26T10:06:53.843Z,17.30
2019-02-26T10:09:21.024Z,23.50
2019-02-26T10:12:10.027Z,27.80
2019-02-26T10:18:31.022Z,23.60
2019-02-26T10:23:54.166Z,27.43
2019-02-26T10:27:21.980Z,42.23
2019-02-26T10:29:49.957Z,26.60
2019-02-26T10:32:38.006Z,23.93
2019-02-26T10:38:10.756Z,26.33
2019-02-26T10:40:57.392Z,19.00
2019-02-26T10:43:34.586Z,18.30
2019-02-26T10:46:01.783Z,18.43
2019-02-26T10:51:32.168Z,25.43
2019-02-26T10:54:00.008Z,18.63
2019-02-26T10:57:18.829Z,30.40
2019-02-26T11:03:35.459Z,23.73
2019-02-26T11:06:01.804Z,24.20
2019-02-26T11:08:32.792Z,17.27
2019-02-26T11:14:08.343Z,14.83
2019-02-26T11:16:46.364Z,14.07
2019-02-26T11:19:55.581Z,13.67
2019-02-26T11:22:44.797Z,12.10
2019-02-26T11:31:31.359Z,14.60
2019-02-26T11:34:01.045Z,19.73
2019-02-26T11:36:36.554Z,14.90
2019-02-26T11:39:10.148Z,15.60
2019-02-26T11:54:20.350Z,15.50
2019-02-26T11:56:49.893Z,17.07
2019-02-26T11:59:38.571Z,14.70
2019-02-26T12:02:12.210Z,18.83
2019-02-26T12:04:39.412Z,26.50
2019-02-26T12:13:08.588Z,17.27
2019-02-26T12:15:38.403Z,14.30
2019-02-26T12:24:17.050Z,11.30
2019-02-26T12:26:45.293Z,9.97
2019-02-26T12:32:24.886Z,13.17
2019-02-26T12:35:33.353Z,20.03
2019-02-26T12:38:17.513Z,17.63
2019-02-26T12:40:46.298Z,14.17
2019-02-26T12:43:21.964Z,11.70
2019-02-26T12:46:02.138Z,11.00
2019-02-26T12:48:30.455Z,13.20
2019-02-26T12:50:58.499Z,21.07
2019-02-26T12:53:44.065Z,21.20
2019-02-26T12:56:20.575Z,16.37
2019-02-26T12:58:54.495Z,18.33
2019-02-26T13:01:33.247Z,21.90
2019-02-26T13:04:09.620Z,34.97
2019-02-26T13:07:22.879Z,15.40
2019-02-26T13:09:54.168Z,15.30
2019-02-26T13:12:38.966Z,23.63
2019-02-26T13:18:09.177Z,18.40
2019-02-26T13:20:59.542Z,23.00
2019-02-26T13:23:31.181Z,22.33
2019-02-26T13:26:51.700Z,17.93
2019-02-26T13:29:25.891Z,19.37
2019-02-26T13:31:56.529Z,16.87
2019-02-26T13:34:28.108Z,28.40
2019-02-26T13:39:56.664Z,15.83
2019-02-26T13:42:50.047Z,18.40
2019-02-26T13:46:00.699Z,27.87
2019-02-26T13:52:33.709Z,13.30
2019-02-26T14:04:03.065Z,17.23
2019-02-26T14:06:30.556Z,13.27
2019-02-26T14:09:17.309Z,9.90
2019-02-26T14:12:25.381Z,11.10
2019-02-26T14:14:52.601Z,9.73
2019-02-26T14:17:21.669Z,19.23
2019-02-26T14:19:49.731Z,11.50
2019-02-26T14:22:57.749Z,15.00
2019-02-26T14:25:24.960Z,8.57
2019-02-26T14:27:52.152Z,7.80
2019-02-26T14:30:19.373Z,13.13
2019-02-26T14:32:46.560Z,10.40
2019-02-26T14:38:27.364Z,6.60
2019-02-26T14:40:54.560Z,7.20
2019-02-26T14:43:21.759Z,6.50
2019-02-26T14:45:49.022Z,4.33
2019-02-26T14:48:16.909Z,6.53
2019-02-26T14:50:44.249Z,4.90
2019-02-26T14:53:11.703Z,6.33
2019-02-26T14:55:39.824Z,4.53
2019-02-26T14:58:07.391Z,5.20
2019-02-26T15:03:28.990Z,6.47
2019-02-26T15:05:56.156Z,5.90
2019-02-26T15:08:23.525Z,3.60
2019-02-26T15:10:50.743Z,8.13
2019-02-26T15:13:18.299Z,5.80
2019-02-26T15:15:45.530Z,6.53
2019-02-26T15:18:12.703Z,4.53
2019-02-26T15:21:20.749Z,9.50
2019-02-26T15:23:48.043Z,5.47
2019-02-26T15:26:15.707Z,6.30
2019-02-26T15:28:43.314Z,5.10
2019-02-26T15:31:13.184Z,4.67
2019-02-26T15:33:40.466Z,8.13
2019-02-26T15:36:07.764Z,8.20
2019-02-26T15:38:35.526Z,4.53
2019-02-26T15:41:04.138Z,3.97
2019-02-26T15:43:31.698Z,4.17
2019-02-26T15:45:59.788Z,6.80
2019-02-26T15:48:47.838Z,5.07
2019-02-26T15:51:19.876Z,6.97
2019-02-26T15:57:05.627Z,16.30
2019-02-26T15:59:52.340Z,12.57
2019-02-26T16:02:19.543Z,13.30
2019-02-26T16:08:07.090Z,6.57
2019-02-26T16:10:34.684Z,6.83
2019-02-26T16:13:04.901Z,10.67
2019-02-26T16:15:33.171Z,5.70
2019-02-26T16:18:00.272Z,8.53
2019-02-26T16:20:35.881Z,5.50
2019-02-26T16:26:38.466Z,8.80
2019-02-26T16:29:18.790Z,5.97
2019-02-26T16:32:29.319Z,10.00
2019-02-26T16:34:56.794Z,8.27
2019-02-26T16:37:45.667Z,12.37
2019-02-26T16:43:35.714Z,75.83
2019-02-26T16:46:14.505Z,17.80
2019-02-26T16:48:42.218Z,12.80
2019-02-26T16:51:09.302Z,47.97
2019-02-26T16:53:57.767Z,44.23
2019-02-26T16:56:24.999Z,56.53
2019-02-26T16:59:07.427Z,46.00
2019-02-26T17:08:17.355Z,95.23
2019-02-26T17:10:44.538Z,44.50
2019-02-26T17:13:11.730Z,87.33
2019-02-26T17:15:38.961Z,122.80
2019-02-26T17:18:16.093Z,55.70
2019-02-26T17:20:49.442Z,35.40
2019-02-26T17:25:54.655Z,32.97
2019-02-26T17:31:23.200Z,51.63
2019-02-26T17:42:33.379Z,44.10
2019-02-26T17:45:13.618Z,42.00
2019-02-26T17:48:00.541Z,26.03
2019-02-26T17:53:49.316Z,28.03
2019-02-26T17:56:28.769Z,24.83
2019-02-26T17:58:56.306Z,32.10
2019-02-26T18:01:23.930Z,14.17
2019-02-26T18:03:51.119Z,28.17
2019-02-26T18:06:18.747Z,17.60
2019-02-26T18:11:47.681Z,32.17
2019-02-26T18:14:15.051Z,19.83
2019-02-26T18:16:44.175Z,22.33
2019-02-26T18:19:13.036Z,23.20
2019-02-26T18:21:43.409Z,23.50
2019-02-26T18:24:19.737Z,23.40
2019-02-26T18:26:47.005Z,24.10
2019-02-26T18:29:26.222Z,24.07
2019-02-26T18:34:32.795Z,25.10
2019-02-26T18:37:00.014Z,31.87
2019-02-26T18:39:27.633Z,16.53
2019-02-26T18:41:55.000Z,26.60
2019-02-26T18:44:22.224Z,43.50
2019-02-26T18:46:49.405Z,16.53
2019-02-26T18:49:16.828Z,20.93
2019-02-26T18:51:44.029Z,24.00
2019-02-26T18:54:54.251Z,22.33
2019-02-26T18:57:27.507Z,28.77
2019-02-26T18:59:54.763Z,42.83
2019-02-26T19:02:22.247Z,25.73
2019-02-26T19:04:49.446Z,22.50
2019-02-26T19:07:16.681Z,27.73
2019-02-26T19:09:45.107Z,37.43
2019-02-26T19:12:22.876Z,27.00
2019-02-26T19:18:23.829Z,20.70
2019-02-26T19:20:51.049Z,23.80
2019-02-26T19:23:18.649Z,32.50
2019-02-26T19:25:45.904Z,28.10
2019-02-26T19:28:13.793Z,25.73
2019-02-26T19:30:41.569Z,27.43
2019-02-26T19:33:08.770Z,29.33
2019-02-26T19:35:40.181Z,23.87
2019-02-26T19:38:11.830Z,19.30
2019-02-26T19:44:14.205Z,21.23
2019-02-26T19:46:42.130Z,37.53
2019-02-26T19:49:09.314Z,25.33
2019-02-26T19:51:36.552Z,33.20
2019-02-26T19:54:04.743Z,24.40
2019-02-26T19:57:14.381Z,26.33
2019-02-26T20:00:01.176Z,21.83
2019-02-26T20:02:48.140Z,17.60
2019-02-26T20:05:15.374Z,23.60
2019-02-26T20:07:42.613Z,23.07
2019-02-26T20:13:12.614Z,13.80
2019-02-26T20:15:59.914Z,14.83
2019-02-26T20:18:27.168Z,20.80
2019-02-26T20:21:35.127Z,11.70
2019-02-26T20:24:02.616Z,15.47
2019-02-26T20:26:29.995Z,14.07
2019-02-26T20:29:16.715Z,13.37
2019-02-26T20:31:44.368Z,16.53
2019-02-26T20:37:13.101Z,17.13
2019-02-26T20:39:40.911Z,15.10
2019-02-26T20:42:19.557Z,19.90
2019-02-26T20:44:46.983Z,15.23
2019-02-26T20:47:14.243Z,24.83
2019-02-26T20:49:43.660Z,13.50
2019-02-26T20:58:31.828Z,14.07
2019-02-26T21:00:59.387Z,15.70
2019-02-26T21:03:37.744Z,12.07
2019-02-26T21:06:18.065Z,31.97
2019-02-26T21:08:45.916Z,13.00
2019-02-26T21:11:44.944Z,15.40
2019-02-26T21:14:12.240Z,12.27
2019-02-26T21:16:41.257Z,14.63
2019-02-26T21:19:08.976Z,15.23
2019-02-26T21:21:36.246Z,13.70
2019-02-26T21:24:03.467Z,16.70
2019-02-26T21:26:30.692Z,15.43
2019-02-26T21:29:11.911Z,17.90
2019-02-26T21:31:58.575Z,17.17
2019-02-26T21:34:47.495Z,13.23
2019-02-26T21:37:34.173Z,14.87
2019-02-26T21:40:01.419Z,17.20
2019-02-26T21:42:30.511Z,12.10
2019-02-26T21:50:54.515Z,14.17
2019-02-26T21:53:27.549Z,11.60
2019-02-26T21:55:55.650Z,25.17
2019-02-26T21:58:33.699Z,20.47
2019-02-26T22:01:00.918Z,21.07
2019-02-26T22:03:29.887Z,22.47
2019-02-26T22:06:05.067Z,22.30
2019-02-26T22:09:05.314Z,23.80
2019-02-26T22:11:33.199Z,15.80
2019-02-26T22:14:02.951Z,30.43
2019-02-26T22:16:35.530Z,24.10
2019-02-26T22:19:04.773Z,17.80
2019-02-26T22:22:28.089Z,25.87
2019-02-26T22:24:55.342Z,22.13
2019-02-26T22:27:22.518Z,20.73
2019-02-26T22:30:09.232Z,32.00
2019-02-26T22:32:38.782Z,17.80
2019-02-26T22:35:52.931Z,40.07
2019-02-26T22:38:39.897Z,27.37
2019-02-26T22:41:07.158Z,21.90
2019-02-26T22:43:36.176Z,21.60
2019-02-26T22:46:46.010Z,21.60
2019-02-26T22:54:54.619Z,16.47
2019-02-26T23:00:56.363Z,19.87
2019-02-26T23:03:23.540Z,15.03
2019-02-26T23:05:50.635Z,15.80
2019-02-26T23:11:52.421Z,22.40
2019-02-26T23:14:39.412Z,16.03
2019-02-26T23:17:47.312Z,20.70
2019-02-26T23:20:46.480Z,24.10
2019-02-26T23:27:07.713Z,18.63
2019-02-26T23:38:38.488Z,21.13
2019-02-26T23:41:46.484Z,28.60
2019-02-26T23:44:25.918Z,16.07
2019-02-26T23:46:53.079Z,14.10
2019-02-26T23:52:22.259Z,17.17
2019-02-26T23:54:49.878Z,19.20
2019-02-26T23:57:58.581Z,15.70
